createdAt,value
2022-10-20T00:00:44.618Z,0.00
2022-10-20T00:01:44.667Z,0.00
2022-10-20T00:02:44.591Z,0.00
2022-10-20T00:03:44.607Z,0.00
2022-10-20T00:04:44.544Z,0.00
2022-10-20T00:05:44.631Z,0.00
2022-10-20T00:06:44.533Z,0.00
2022-10-20T00:07:44.577Z,0.00
2022-10-20T00:08:44.555Z,0.00
2022-10-20T00:09:44.551Z,0.00
2022-10-20T00:10:44.499Z,0.00
2022-10-20T00:11:44.470Z,0.00
2022-10-20T00:12:44.434Z,0.00
2022-10-20T00:13:44.443Z,0.00
2022-10-20T00:14:44.448Z,0.00
2022-10-20T00:15:44.469Z,0.00
2022-10-20T00:16:44.378Z,0.00
2022-10-20T00:17:44.439Z,0.00
2022-10-20T00:18:44.353Z,0.00
2022-10-20T00:19:44.364Z,0.00
2022-10-20T00:20:44.327Z,0.00
2022-10-20T00:21:44.383Z,0.00
2022-10-20T00:22:44.303Z,0.00
2022-10-20T00:23:44.313Z,0.00
2022-10-20T00:24:44.303Z,0.00
2022-10-20T00:25:44.330Z,0.00
2022-10-20T00:26:44.261Z,0.00
2022-10-20T00:27:44.334Z,0.00
2022-10-20T00:28:44.230Z,0.00
2022-10-20T00:29:44.254Z,0.00
2022-10-20T00:30:44.190Z,0.00
2022-10-20T00:31:44.228Z,0.00
2022-10-20T00:32:44.178Z,0.00
2022-10-20T00:33:44.207Z,0.00
2022-10-20T00:34:44.194Z,0.00
2022-10-20T00:35:44.150Z,0.00
2022-10-20T00:36:48.778Z,0.00
2022-10-20T00:37:44.130Z,0.00
2022-10-20T00:38:44.103Z,0.00
2022-10-20T00:39:44.131Z,0.00
2022-10-20T00:40:44.061Z,0.00
2022-10-20T00:41:44.061Z,0.00
2022-10-20T00:42:44.039Z,0.00
2022-10-20T00:43:44.045Z,0.00
2022-10-20T00:44:44.012Z,0.00
2022-10-20T00:45:44.063Z,0.00
2022-10-20T00:46:43.983Z,0.00
2022-10-20T00:48:43.970Z,0.00
2022-10-20T00:49:43.955Z,0.00
2022-10-20T00:50:43.938Z,0.00
2022-10-20T00:51:43.971Z,0.00
2022-10-20T00:52:43.930Z,0.00
2022-10-20T00:53:43.903Z,0.00
2022-10-20T00:54:43.884Z,0.00
2022-10-20T00:55:43.874Z,0.00
2022-10-20T00:56:43.888Z,0.00
2022-10-20T00:57:43.936Z,0.00
2022-10-20T00:58:43.853Z,0.00
2022-10-20T00:59:43.848Z,0.00
2022-10-20T01:00:43.825Z,0.00
2022-10-20T01:01:43.842Z,0.00
2022-10-20T01:02:43.781Z,0.00
2022-10-20T01:03:43.821Z,0.00
2022-10-20T01:04:43.787Z,0.00
2022-10-20T01:05:43.792Z,0.00
2022-10-20T01:06:43.736Z,0.00
2022-10-20T01:07:43.710Z,0.00
2022-10-20T01:08:43.794Z,0.00
2022-10-20T01:09:43.754Z,0.00
2022-10-20T01:10:43.664Z,0.00
2022-10-20T01:11:43.665Z,0.00
2022-10-20T01:12:43.633Z,0.00
2022-10-20T01:13:43.641Z,0.00
2022-10-20T01:14:43.609Z,0.00
2022-10-20T01:15:43.653Z,0.00
2022-10-20T01:16:43.634Z,0.00
2022-10-20T01:17:43.586Z,0.00
2022-10-20T01:18:43.553Z,0.00
2022-10-20T01:19:43.563Z,0.00
2022-10-20T01:20:43.538Z,0.00
2022-10-20T01:21:43.568Z,0.00
2022-10-20T01:22:43.501Z,0.00
2022-10-20T01:23:43.547Z,0.00
2022-10-20T01:24:43.479Z,0.00
2022-10-20T01:25:43.467Z,0.00
2022-10-20T01:26:43.462Z,0.00
2022-10-20T01:27:43.486Z,0.00
2022-10-20T01:28:43.428Z,0.00
2022-10-20T01:29:43.429Z,0.00
2022-10-20T01:30:43.393Z,0.00
2022-10-20T01:31:43.405Z,0.00
2022-10-20T01:32:43.363Z,0.00
2022-10-20T01:33:43.432Z,0.00
2022-10-20T01:34:43.346Z,0.00
2022-10-20T01:35:43.386Z,0.00
2022-10-20T01:36:43.324Z,0.00
2022-10-20T01:37:50.995Z,0.00
2022-10-20T01:38:43.293Z,0.00
2022-10-20T01:39:43.351Z,0.00
2022-10-20T01:40:43.257Z,0.00
2022-10-20T01:41:43.264Z,0.00
2022-10-20T01:42:43.243Z,0.00
2022-10-20T01:43:43.237Z,0.00
2022-10-20T01:44:43.217Z,0.00
2022-10-20T01:45:43.268Z,0.00
2022-10-20T01:46:43.200Z,0.00
2022-10-20T01:47:43.182Z,0.00
2022-10-20T01:48:43.159Z,0.00
2022-10-20T01:49:43.179Z,0.00
2022-10-20T01:50:43.212Z,0.00
2022-10-20T01:51:43.187Z,0.00
2022-10-20T01:52:43.160Z,0.00
2022-10-20T01:53:43.126Z,0.00
2022-10-20T01:54:43.175Z,0.00
2022-10-20T01:55:43.128Z,0.00
2022-10-20T01:56:43.079Z,0.00
2022-10-20T01:57:43.169Z,0.00
2022-10-20T01:58:43.022Z,0.00
2022-10-20T01:59:43.093Z,0.00
2022-10-20T02:00:43.065Z,0.00
2022-10-20T02:01:43.177Z,0.00
2022-10-20T02:02:42.999Z,0.00
2022-10-20T02:03:43.007Z,0.00
2022-10-20T02:04:42.969Z,0.00
2022-10-20T02:05:42.940Z,0.00
2022-10-20T02:06:42.932Z,0.00
2022-10-20T02:07:42.949Z,0.00
2022-10-20T02:08:42.931Z,0.00
2022-10-20T02:09:43.074Z,0.00
2022-10-20T02:10:42.862Z,0.00
2022-10-20T02:11:42.870Z,0.00
2022-10-20T02:12:42.838Z,0.00
2022-10-20T02:13:42.852Z,0.00
2022-10-20T02:14:42.808Z,0.00
2022-10-20T02:15:42.850Z,0.00
2022-10-20T02:16:42.791Z,0.00
2022-10-20T02:17:42.776Z,0.00
2022-10-20T02:18:42.757Z,0.00
2022-10-20T02:19:42.765Z,0.00
2022-10-20T02:20:42.734Z,0.00
2022-10-20T02:21:42.772Z,0.00
2022-10-20T02:22:42.708Z,0.00
2022-10-20T02:23:42.713Z,0.00
2022-10-20T02:24:42.670Z,0.00
2022-10-20T02:25:42.670Z,0.00
2022-10-20T02:26:42.661Z,0.00
2022-10-20T02:27:42.696Z,0.00
2022-10-20T02:28:42.632Z,0.00
2022-10-20T02:29:42.640Z,0.00
2022-10-20T02:30:42.592Z,0.00
2022-10-20T02:31:42.614Z,0.00
2022-10-20T02:32:42.564Z,0.00
2022-10-20T02:33:42.622Z,0.00
2022-10-20T02:34:42.726Z,0.00
2022-10-20T02:35:42.541Z,0.00
2022-10-20T02:36:42.526Z,0.00
2022-10-20T02:37:42.509Z,0.00
2022-10-20T02:38:42.489Z,0.00
2022-10-20T02:39:42.554Z,0.00
2022-10-20T02:40:42.461Z,0.00
2022-10-20T02:41:42.475Z,0.00
2022-10-20T02:42:42.444Z,0.00
2022-10-20T02:43:42.440Z,0.00
2022-10-20T02:44:42.431Z,0.00
2022-10-20T02:45:42.449Z,0.00
2022-10-20T02:46:42.377Z,0.00
2022-10-20T02:47:42.452Z,0.00
2022-10-20T02:48:42.401Z,0.00
2022-10-20T02:49:42.353Z,0.00
2022-10-20T02:50:42.350Z,0.00
2022-10-20T02:51:42.382Z,0.00
2022-10-20T02:52:42.301Z,0.00
2022-10-20T02:53:42.366Z,0.00
2022-10-20T02:54:42.276Z,0.00
2022-10-20T02:55:42.289Z,0.00
2022-10-20T02:56:42.264Z,0.00
2022-10-20T02:57:42.301Z,0.00
2022-10-20T02:58:42.267Z,0.00
2022-10-20T02:59:42.227Z,0.00
2022-10-20T03:00:42.199Z,0.00
2022-10-20T03:01:42.231Z,0.00
2022-10-20T03:02:42.197Z,0.00
2022-10-20T03:03:42.235Z,0.00
2022-10-20T03:04:42.167Z,0.00
2022-10-20T03:05:42.145Z,0.00
2022-10-20T03:06:42.126Z,0.00
2022-10-20T03:07:42.122Z,0.00
2022-10-20T03:08:42.129Z,0.00
2022-10-20T03:09:42.174Z,0.00
2022-10-20T03:10:42.069Z,0.00
2022-10-20T03:11:42.101Z,0.00
2022-10-20T03:12:42.058Z,0.00
2022-10-20T03:13:42.064Z,0.00
2022-10-20T03:14:42.006Z,0.00
2022-10-20T03:15:42.132Z,0.00
2022-10-20T03:16:41.992Z,0.00
2022-10-20T03:17:42.009Z,0.00
2022-10-20T03:18:41.998Z,0.00
2022-10-20T03:19:41.955Z,0.00
2022-10-20T03:20:41.964Z,0.00
2022-10-20T03:21:41.973Z,0.00
2022-10-20T03:22:41.957Z,0.00
2022-10-20T03:23:41.921Z,0.00
2022-10-20T03:24:41.877Z,0.00
2022-10-20T03:25:41.916Z,0.00
2022-10-20T03:26:41.863Z,0.00
2022-10-20T03:27:41.921Z,0.00
2022-10-20T03:28:41.832Z,0.00
2022-10-20T03:29:41.839Z,0.00
2022-10-20T03:30:41.823Z,0.00
2022-10-20T03:31:41.863Z,0.00
2022-10-20T03:32:41.770Z,0.00
2022-10-20T03:33:41.856Z,0.00
2022-10-20T03:34:41.743Z,0.00
2022-10-20T03:35:41.737Z,0.00
2022-10-20T03:36:41.762Z,0.00
2022-10-20T03:37:41.720Z,0.00
2022-10-20T03:38:41.697Z,0.00
2022-10-20T03:39:41.732Z,0.00
2022-10-20T03:40:41.676Z,0.00
2022-10-20T03:41:41.677Z,0.00
2022-10-20T03:42:41.657Z,0.00
2022-10-20T03:43:41.656Z,0.00
2022-10-20T03:44:41.622Z,0.00
2022-10-20T03:45:41.635Z,0.00
2022-10-20T03:46:41.627Z,0.00
2022-10-20T03:47:41.580Z,0.00
2022-10-20T03:48:41.569Z,0.00
2022-10-20T03:49:41.549Z,0.00
2022-10-20T03:50:41.559Z,0.00
2022-10-20T03:51:41.566Z,0.00
2022-10-20T03:52:41.528Z,0.00
2022-10-20T03:53:41.511Z,0.00
2022-10-20T03:54:41.486Z,0.00
2022-10-20T03:55:41.482Z,0.00
2022-10-20T03:56:41.459Z,0.00
2022-10-20T03:57:41.473Z,0.00
2022-10-20T03:58:41.473Z,0.00
2022-10-20T03:59:41.429Z,0.00
2022-10-20T04:00:41.463Z,0.00
2022-10-20T04:01:41.399Z,0.00
2022-10-20T04:02:41.390Z,0.00
2022-10-20T04:03:41.393Z,0.00
2022-10-20T04:04:41.363Z,0.00
2022-10-20T04:05:41.354Z,0.00
2022-10-20T04:06:41.339Z,0.00
2022-10-20T04:07:41.303Z,0.00
2022-10-20T04:08:41.355Z,0.00
2022-10-20T04:09:41.379Z,0.00
2022-10-20T04:10:41.305Z,0.00
2022-10-20T04:11:41.299Z,0.00
2022-10-20T04:12:41.260Z,0.00
2022-10-20T04:13:41.223Z,0.00
2022-10-20T04:14:41.229Z,0.00
2022-10-20T04:15:41.255Z,0.00
2022-10-20T04:16:41.234Z,0.00
2022-10-20T04:17:41.177Z,0.00
2022-10-20T04:18:41.170Z,0.00
2022-10-20T04:19:41.150Z,0.00
2022-10-20T04:20:44.329Z,0.00
2022-10-20T04:21:41.179Z,0.00
2022-10-20T04:22:41.135Z,0.00
2022-10-20T04:23:41.089Z,0.00
2022-10-20T04:24:41.093Z,0.00
2022-10-20T04:25:41.076Z,0.00
2022-10-20T04:26:41.188Z,0.00
2022-10-20T04:27:41.113Z,0.00
2022-10-20T04:28:41.051Z,0.00
2022-10-20T04:29:41.014Z,0.00
2022-10-20T04:30:41.022Z,0.00
2022-10-20T04:31:44.185Z,0.00
2022-10-20T04:32:41.017Z,0.00
2022-10-20T04:33:41.082Z,0.00
2022-10-20T04:34:40.963Z,0.00
2022-10-20T04:35:40.996Z,0.00
2022-10-20T04:36:40.967Z,0.00
2022-10-20T04:37:41.187Z,0.00
2022-10-20T04:38:41.648Z,0.00
2022-10-20T04:39:40.919Z,0.00
2022-10-20T04:40:40.881Z,0.00
2022-10-20T04:41:40.857Z,0.00
2022-10-20T04:42:40.846Z,0.00
2022-10-20T04:43:40.857Z,0.00
2022-10-20T04:44:40.899Z,0.00
2022-10-20T04:45:40.839Z,0.00
2022-10-20T04:46:40.826Z,0.00
2022-10-20T04:47:40.779Z,0.00
2022-10-20T04:48:40.777Z,0.00
2022-10-20T04:49:40.740Z,0.00
2022-10-20T04:50:40.734Z,0.00
2022-10-20T04:51:40.761Z,0.00
2022-10-20T04:52:40.755Z,0.00
2022-10-20T04:53:40.703Z,0.00
2022-10-20T04:54:40.691Z,0.00
2022-10-20T04:55:40.662Z,0.00
2022-10-20T04:56:40.666Z,0.00
2022-10-20T04:57:40.674Z,0.00
2022-10-20T04:58:40.699Z,0.00
2022-10-20T04:59:40.612Z,0.00
2022-10-20T05:00:40.698Z,0.00
2022-10-20T05:01:40.690Z,0.00
2022-10-20T05:02:40.600Z,0.00
2022-10-20T05:03:40.612Z,0.00
2022-10-20T05:04:40.699Z,0.00
2022-10-20T05:05:40.560Z,0.00
2022-10-20T05:06:40.521Z,0.00
2022-10-20T05:07:40.525Z,0.00
2022-10-20T05:08:40.614Z,0.00
2022-10-20T05:09:40.519Z,0.00
2022-10-20T05:10:40.468Z,0.00
2022-10-20T05:11:40.484Z,0.00
2022-10-20T05:12:40.544Z,0.00
2022-10-20T05:13:40.437Z,0.00
2022-10-20T05:14:40.501Z,0.00
2022-10-20T05:15:40.468Z,0.00
2022-10-20T05:16:40.413Z,0.00
2022-10-20T05:17:40.382Z,0.00
2022-10-20T05:18:40.375Z,0.00
2022-10-20T05:19:40.358Z,0.00
2022-10-20T05:20:41.356Z,0.00
2022-10-20T05:22:40.316Z,0.00
2022-10-20T05:23:40.299Z,0.00
2022-10-20T05:24:40.403Z,0.00
2022-10-20T05:25:40.287Z,0.00
2022-10-20T05:26:40.273Z,0.00
2022-10-20T05:27:40.285Z,0.00
2022-10-20T05:28:40.231Z,0.00
2022-10-20T05:29:40.224Z,0.00
2022-10-20T05:30:40.210Z,0.00
2022-10-20T05:31:40.137Z,1.00
2022-10-20T05:32:40.143Z,1.00
2022-10-20T05:33:40.147Z,1.00
2022-10-20T05:34:40.113Z,1.00
2022-10-20T05:35:40.078Z,2.00
2022-10-20T05:36:40.071Z,2.00
2022-10-20T05:37:40.050Z,2.00
2022-10-20T05:38:40.041Z,3.00
2022-10-20T05:39:40.125Z,2.00
2022-10-20T05:40:40.025Z,2.00
2022-10-20T05:41:39.990Z,4.00
2022-10-20T05:42:40.007Z,6.00
2022-10-20T05:43:39.998Z,9.00
2022-10-20T05:44:39.976Z,8.00
2022-10-20T05:45:39.983Z,9.00
2022-10-20T05:46:39.937Z,14.00
2022-10-20T05:47:39.911Z,15.00
2022-10-20T05:48:43.060Z,19.00
2022-10-20T05:49:39.901Z,21.00
2022-10-20T05:50:39.974Z,21.00
2022-10-20T05:51:40.064Z,31.00
2022-10-20T05:52:39.913Z,37.00
2022-10-20T05:53:39.829Z,40.00
2022-10-20T05:54:39.916Z,45.00
2022-10-20T05:55:39.811Z,47.00
2022-10-20T05:56:39.805Z,50.00
2022-10-20T05:57:39.856Z,55.00
2022-10-20T05:58:39.793Z,60.00
2022-10-20T05:59:39.748Z,64.00
2022-10-20T06:00:39.768Z,72.00
2022-10-20T06:01:39.734Z,81.00
2022-10-20T06:02:39.855Z,91.00
2022-10-20T06:03:39.741Z,95.00
2022-10-20T06:04:39.693Z,102.00
2022-10-20T06:05:39.672Z,118.00
2022-10-20T06:06:39.675Z,127.00
2022-10-20T06:07:39.639Z,138.00
2022-10-20T06:08:39.742Z,149.00
2022-10-20T06:09:39.673Z,165.00
2022-10-20T06:10:39.652Z,172.00
2022-10-20T06:11:39.932Z,182.00
2022-10-20T06:12:39.657Z,183.00
2022-10-20T06:13:39.570Z,197.00
2022-10-20T06:14:39.566Z,199.00
2022-10-20T06:15:39.590Z,201.00
2022-10-20T06:16:39.536Z,217.00
2022-10-20T06:17:39.532Z,221.00
2022-10-20T06:18:39.521Z,231.00
2022-10-20T06:19:39.482Z,239.00
2022-10-20T06:20:39.491Z,241.00
2022-10-20T06:21:39.601Z,249.00
2022-10-20T06:22:39.792Z,265.00
2022-10-20T06:23:39.458Z,282.00
2022-10-20T06:24:39.434Z,296.00
2022-10-20T06:25:39.400Z,317.00
2022-10-20T06:26:39.436Z,331.00
2022-10-20T06:27:39.428Z,362.00
2022-10-20T06:28:39.491Z,382.00
2022-10-20T06:29:39.348Z,419.00
2022-10-20T06:30:39.375Z,438.00
2022-10-20T06:31:39.334Z,475.00
2022-10-20T06:32:39.553Z,497.00
2022-10-20T06:33:39.336Z,530.00
2022-10-20T06:34:39.305Z,561.00
2022-10-20T06:35:39.269Z,582.00
2022-10-20T06:36:39.273Z,610.00
2022-10-20T06:37:39.252Z,624.00
2022-10-20T06:38:39.253Z,637.00
2022-10-20T06:39:39.260Z,643.00
2022-10-20T06:40:39.255Z,630.00
2022-10-20T06:41:39.189Z,656.00
2022-10-20T06:42:39.300Z,659.00
2022-10-20T06:43:39.214Z,680.00
2022-10-20T06:44:39.164Z,717.00
2022-10-20T06:45:39.170Z,750.00
2022-10-20T06:46:39.160Z,786.00
2022-10-20T06:47:39.652Z,815.00
2022-10-20T06:48:39.114Z,852.00
2022-10-20T06:49:39.112Z,888.00
2022-10-20T06:50:39.115Z,921.00
2022-10-20T06:51:39.109Z,951.00
2022-10-20T06:52:39.305Z,980.00
2022-10-20T06:53:42.671Z,1025.00
2022-10-20T06:54:39.048Z,1069.00
2022-10-20T06:55:39.011Z,1097.00
2022-10-20T06:56:39.012Z,1120.00
2022-10-20T06:57:39.008Z,1159.00
2022-10-20T06:58:38.999Z,1181.00
2022-10-20T06:59:38.953Z,1190.00
2022-10-20T07:00:38.958Z,1215.00
2022-10-20T07:01:38.973Z,1243.00
2022-10-20T07:02:39.197Z,1257.00
2022-10-20T07:03:38.962Z,1281.00
2022-10-20T07:04:38.929Z,1309.00
2022-10-20T07:05:38.873Z,1326.00
2022-10-20T07:06:38.897Z,1346.00
2022-10-20T07:07:38.853Z,1374.00
2022-10-20T07:08:38.890Z,1388.00
2022-10-20T07:09:38.861Z,1383.00
2022-10-20T07:10:39.013Z,1360.00
2022-10-20T07:11:38.805Z,1335.00
2022-10-20T07:12:39.103Z,1302.00
2022-10-20T07:13:38.777Z,1274.00
2022-10-20T07:14:38.779Z,1228.00
2022-10-20T07:15:38.779Z,1182.00
2022-10-20T07:16:38.782Z,1171.00
2022-10-20T07:17:38.726Z,1181.00
2022-10-20T07:18:38.765Z,1206.00
2022-10-20T07:19:38.726Z,1233.00
2022-10-20T07:20:38.691Z,1276.00
2022-10-20T07:21:41.527Z,1267.00
2022-10-20T07:22:39.205Z,1293.00
2022-10-20T07:23:38.642Z,1347.00
2022-10-20T07:24:38.640Z,1427.00
2022-10-20T07:25:38.659Z,1504.00
2022-10-20T07:26:38.618Z,1604.00
2022-10-20T07:27:38.664Z,1633.00
2022-10-20T07:28:38.585Z,1670.00
2022-10-20T07:29:38.586Z,1706.00
2022-10-20T07:30:38.555Z,1779.00
2022-10-20T07:31:38.631Z,1875.00
2022-10-20T07:32:38.982Z,1926.00
2022-10-20T07:33:38.541Z,2014.00
2022-10-20T07:34:38.515Z,2141.00
2022-10-20T07:35:38.488Z,2212.00
2022-10-20T07:36:38.468Z,2257.00
2022-10-20T07:37:38.954Z,2308.00
2022-10-20T07:38:38.477Z,2374.00
2022-10-20T07:39:38.458Z,2435.00
2022-10-20T07:40:38.443Z,2451.00
2022-10-20T07:41:38.526Z,2449.00
2022-10-20T07:42:38.982Z,2435.00
2022-10-20T07:43:39.998Z,2398.00
2022-10-20T07:44:38.407Z,2407.00
2022-10-20T07:45:38.387Z,2364.00
2022-10-20T07:46:38.341Z,2310.00
2022-10-20T07:47:40.059Z,2323.00
2022-10-20T07:48:38.332Z,2329.00
2022-10-20T07:49:44.067Z,2331.00
2022-10-20T07:50:38.297Z,2378.00
2022-10-20T07:51:38.374Z,2425.00
2022-10-20T07:52:38.604Z,2468.00
2022-10-20T07:53:44.786Z,2483.00
2022-10-20T07:54:38.253Z,2454.00
2022-10-20T07:55:39.165Z,2380.00
2022-10-20T07:56:38.264Z,2285.00
2022-10-20T07:57:38.245Z,2208.00
2022-10-20T07:58:38.178Z,2161.00
2022-10-20T07:59:38.165Z,2207.00
2022-10-20T08:01:38.256Z,2383.00
2022-10-20T08:02:38.634Z,2513.00
2022-10-20T08:03:38.164Z,2657.00
2022-10-20T08:04:38.127Z,2788.00
2022-10-20T08:05:38.110Z,2899.00
2022-10-20T08:06:39.218Z,2977.00
2022-10-20T08:07:38.067Z,3049.00
2022-10-20T08:08:38.075Z,3115.00
2022-10-20T08:09:38.172Z,3134.00
2022-10-20T08:10:38.040Z,3130.00
2022-10-20T08:11:38.015Z,3128.00
2022-10-20T08:12:38.340Z,3159.00
2022-10-20T08:13:37.983Z,3178.00
2022-10-20T08:14:37.973Z,3180.00
2022-10-20T08:15:38.215Z,3138.00
2022-10-20T08:16:37.983Z,3115.00
2022-10-20T08:17:37.960Z,3093.00
2022-10-20T08:18:39.030Z,3112.00
2022-10-20T08:19:40.982Z,3148.00
2022-10-20T08:20:38.846Z,3216.00
2022-10-20T08:21:37.900Z,3288.00
2022-10-20T08:22:38.212Z,3311.00
2022-10-20T08:23:37.871Z,3339.00
2022-10-20T08:24:37.835Z,3310.00
2022-10-20T08:25:37.840Z,3310.00
2022-10-20T08:26:37.858Z,3301.00
2022-10-20T08:27:37.903Z,3286.00
2022-10-20T08:28:37.817Z,3261.00
2022-10-20T08:29:37.768Z,3235.00
2022-10-20T08:30:37.759Z,3210.00
2022-10-20T08:31:37.747Z,3161.00
2022-10-20T08:32:37.963Z,3088.00
2022-10-20T08:33:37.803Z,2991.00
2022-10-20T08:34:37.702Z,2907.00
2022-10-20T08:35:37.682Z,2794.00
2022-10-20T08:36:37.683Z,2682.00
2022-10-20T08:37:38.304Z,2560.00
2022-10-20T08:38:37.666Z,2424.00
2022-10-20T08:39:37.682Z,2307.00
2022-10-20T08:40:37.613Z,2211.00
2022-10-20T08:41:55.508Z,2170.00
2022-10-20T08:42:37.589Z,2171.00
2022-10-20T08:43:37.594Z,2195.00
2022-10-20T08:44:37.584Z,2217.00
2022-10-20T08:45:38.608Z,2263.00
2022-10-20T08:46:37.531Z,2338.00
2022-10-20T08:47:37.787Z,2395.00
2022-10-20T08:48:37.531Z,2447.00
2022-10-20T08:49:37.502Z,2472.00
2022-10-20T08:50:37.493Z,2562.00
2022-10-20T08:51:37.524Z,2739.00
2022-10-20T08:52:37.461Z,2981.00
2022-10-20T08:53:37.443Z,3289.00
2022-10-20T08:54:37.441Z,3619.00
2022-10-20T08:55:37.433Z,4004.00
2022-10-20T08:56:37.396Z,4354.00
2022-10-20T08:57:37.629Z,4605.00
2022-10-20T08:58:37.365Z,4837.00
2022-10-20T08:59:39.828Z,4964.00
2022-10-20T09:00:37.363Z,5064.00
2022-10-20T09:01:37.423Z,5105.00
2022-10-20T09:02:37.325Z,4955.00
2022-10-20T09:03:37.351Z,4663.00
2022-10-20T09:04:37.353Z,4285.00
2022-10-20T09:05:37.338Z,3951.00
2022-10-20T09:06:37.334Z,3706.00
2022-10-20T09:07:37.565Z,3707.00
2022-10-20T09:08:37.312Z,3827.00
2022-10-20T09:09:37.284Z,3940.00
2022-10-20T09:10:37.218Z,3939.00
2022-10-20T09:11:37.239Z,3836.00
2022-10-20T09:12:37.200Z,3660.00
2022-10-20T09:13:37.277Z,3446.00
2022-10-20T09:14:37.167Z,3342.00
2022-10-20T09:15:37.199Z,3190.00
2022-10-20T09:16:42.193Z,3128.00
2022-10-20T09:17:37.569Z,3339.00
2022-10-20T09:18:37.120Z,3600.00
2022-10-20T09:19:37.166Z,3913.00
2022-10-20T09:20:37.095Z,4442.00
2022-10-20T09:21:37.152Z,4432.00
2022-10-20T09:22:37.045Z,4407.00
2022-10-20T09:23:41.138Z,4001.00
2022-10-20T09:24:37.036Z,5229.00
2022-10-20T09:25:37.056Z,5186.00
2022-10-20T09:26:57.447Z,5921.00
2022-10-20T09:27:37.443Z,5573.00
2022-10-20T09:28:49.223Z,5441.00
2022-10-20T09:29:37.019Z,5221.00
2022-10-20T09:30:36.942Z,5040.00
2022-10-20T09:31:36.959Z,4906.00
2022-10-20T09:32:52.398Z,4720.00
2022-10-20T09:33:37.047Z,4476.00
2022-10-20T09:34:36.884Z,4149.00
2022-10-20T09:35:36.914Z,3789.00
2022-10-20T09:36:36.856Z,3454.00
2022-10-20T09:37:36.871Z,3199.00
2022-10-20T09:38:37.456Z,3059.00
2022-10-20T09:39:39.417Z,2970.00
2022-10-20T09:40:36.816Z,2951.00
2022-10-20T09:41:36.809Z,2970.00
2022-10-20T09:42:37.137Z,3057.00
2022-10-20T09:43:36.820Z,3173.00
2022-10-20T09:44:36.780Z,3249.00
2022-10-20T09:45:36.874Z,3320.00
2022-10-20T09:46:36.728Z,3353.00
2022-10-20T09:47:36.748Z,3392.00
2022-10-20T09:48:36.699Z,3414.00
2022-10-20T09:49:36.713Z,3467.00
2022-10-20T09:50:36.705Z,3535.00
2022-10-20T09:51:36.724Z,3578.00
2022-10-20T09:52:37.027Z,3592.00
2022-10-20T09:53:36.659Z,3697.00
2022-10-20T09:54:36.618Z,3755.00
2022-10-20T09:55:36.645Z,3768.00
2022-10-20T09:56:36.590Z,3709.00
2022-10-20T09:57:36.662Z,3310.00
2022-10-20T09:58:36.582Z,3380.00
2022-10-20T09:59:36.582Z,3403.00
2022-10-20T10:00:37.936Z,3211.00
2022-10-20T10:01:36.559Z,3164.00
2022-10-20T10:02:36.724Z,3136.00
2022-10-20T10:03:36.541Z,2954.00
2022-10-20T10:04:36.505Z,2910.00
2022-10-20T10:05:36.527Z,3042.00
2022-10-20T10:06:36.477Z,3202.00
2022-10-20T10:07:36.491Z,3316.00
2022-10-20T10:08:36.475Z,3528.00
2022-10-20T10:09:36.473Z,3872.00
2022-10-20T10:10:36.411Z,4416.00
2022-10-20T10:11:36.445Z,4598.00
2022-10-20T10:12:36.773Z,4571.00
2022-10-20T10:13:36.406Z,4904.00
2022-10-20T10:14:36.383Z,5148.00
2022-10-20T10:15:36.395Z,5292.00
2022-10-20T10:16:36.335Z,5287.00
2022-10-20T10:17:36.680Z,5239.00
2022-10-20T10:18:36.293Z,5182.00
2022-10-20T10:19:36.325Z,5037.00
2022-10-20T10:20:36.273Z,4827.00
2022-10-20T10:21:36.301Z,4319.00
2022-10-20T10:22:36.573Z,4134.00
2022-10-20T10:23:36.264Z,4178.00
2022-10-20T10:24:36.252Z,4377.00
2022-10-20T10:25:36.226Z,4567.00
2022-10-20T10:26:36.201Z,4750.00
2022-10-20T10:27:36.266Z,4671.00
2022-10-20T10:28:36.171Z,4440.00
2022-10-20T10:29:36.188Z,4135.00
2022-10-20T10:30:36.151Z,3403.00
2022-10-20T10:31:36.173Z,2867.00
2022-10-20T10:32:36.427Z,2578.00
2022-10-20T10:33:36.165Z,2389.00
2022-10-20T10:34:36.115Z,2544.00
2022-10-20T10:35:36.099Z,2591.00
2022-10-20T10:36:36.178Z,2100.00
2022-10-20T10:37:36.129Z,1751.00
2022-10-20T10:38:36.059Z,1897.00
2022-10-20T10:39:36.116Z,2362.00
2022-10-20T10:40:36.038Z,2493.00
2022-10-20T10:41:36.050Z,2300.00
2022-10-20T10:42:36.391Z,2063.00
2022-10-20T10:43:36.015Z,2080.00
2022-10-20T10:44:35.979Z,2360.00
2022-10-20T10:45:36.055Z,2641.00
2022-10-20T10:46:35.973Z,2508.00
2022-10-20T10:47:39.374Z,2137.00
2022-10-20T10:48:35.947Z,1976.00
2022-10-20T10:49:35.904Z,1937.00
2022-10-20T10:50:35.902Z,1906.00
2022-10-20T10:51:35.959Z,1947.00
2022-10-20T10:52:35.875Z,1897.00
2022-10-20T10:53:35.898Z,1707.00
2022-10-20T10:54:35.851Z,1714.00
2022-10-20T10:55:51.056Z,1703.00
2022-10-20T10:56:35.846Z,1669.00
2022-10-20T10:57:36.135Z,1768.00
2022-10-20T10:58:35.814Z,1642.00
2022-10-20T10:59:35.780Z,1344.00
2022-10-20T11:00:35.789Z,1041.00
2022-10-20T11:01:35.764Z,874.00
2022-10-20T11:02:36.003Z,923.00
2022-10-20T11:03:37.726Z,1213.00
2022-10-20T11:04:35.725Z,1720.00
2022-10-20T11:05:35.694Z,1988.00
2022-10-20T11:06:35.697Z,2289.00
2022-10-20T11:07:36.135Z,2832.00
2022-10-20T11:08:35.688Z,3335.00
2022-10-20T11:09:35.666Z,3363.00
2022-10-20T11:10:35.609Z,3142.00
2022-10-20T11:11:35.630Z,3039.00
2022-10-20T11:12:35.603Z,2958.00
2022-10-20T11:13:35.584Z,2769.00
2022-10-20T11:14:35.554Z,2422.00
2022-10-20T11:15:35.624Z,2030.00
2022-10-20T11:16:35.593Z,1694.00
2022-10-20T11:17:35.870Z,1531.00
2022-10-20T11:18:35.504Z,1558.00
2022-10-20T11:19:35.516Z,1760.00
2022-10-20T11:20:35.497Z,2067.00
2022-10-20T11:21:35.550Z,2444.00
2022-10-20T11:22:35.495Z,2777.00
2022-10-20T11:23:35.458Z,2994.00
2022-10-20T11:24:35.466Z,3088.00
2022-10-20T11:25:35.505Z,3115.00
2022-10-20T11:26:35.419Z,3181.00
2022-10-20T11:27:35.715Z,3348.00
2022-10-20T11:28:35.373Z,3423.00
2022-10-20T11:29:35.377Z,3157.00
2022-10-20T11:30:35.380Z,2880.00
2022-10-20T11:31:35.350Z,2883.00
2022-10-20T11:33:36.931Z,2818.00
2022-10-20T11:34:35.301Z,2652.00
2022-10-20T11:35:35.294Z,2657.00
2022-10-20T11:36:35.257Z,2738.00
2022-10-20T11:37:35.767Z,2688.00
2022-10-20T11:38:35.251Z,2523.00
2022-10-20T11:39:35.273Z,2429.00
2022-10-20T11:40:35.254Z,2402.00
2022-10-20T11:41:35.281Z,2376.00
2022-10-20T11:42:35.445Z,2215.00
2022-10-20T11:43:35.209Z,2000.00
2022-10-20T11:44:35.202Z,1821.00
2022-10-20T11:45:35.964Z,1771.00
2022-10-20T11:46:35.123Z,1810.00
2022-10-20T11:47:35.177Z,1854.00
2022-10-20T11:48:35.134Z,1888.00
2022-10-20T11:49:35.101Z,1905.00
2022-10-20T11:50:35.080Z,2016.00
2022-10-20T11:51:35.086Z,2178.00
2022-10-20T11:52:35.362Z,2115.00
2022-10-20T11:53:35.092Z,2050.00
2022-10-20T11:54:35.049Z,2104.00
2022-10-20T11:55:35.033Z,2110.00
2022-10-20T11:56:34.992Z,2093.00
2022-10-20T11:57:35.002Z,2116.00
2022-10-20T11:58:35.027Z,2115.00
2022-10-20T11:59:34.969Z,2239.00
2022-10-20T12:00:34.948Z,2316.00
2022-10-20T12:01:35.297Z,2259.00
2022-10-20T12:02:35.245Z,2172.00
2022-10-20T12:03:34.957Z,2163.00
2022-10-20T12:04:34.911Z,2209.00
2022-10-20T12:05:34.893Z,2269.00
2022-10-20T12:06:34.894Z,2237.00
2022-10-20T12:07:34.858Z,2085.00
2022-10-20T12:08:34.922Z,1997.00
2022-10-20T12:09:34.919Z,2144.00
2022-10-20T12:10:34.819Z,2400.00
2022-10-20T12:11:34.792Z,2515.00
2022-10-20T12:12:35.139Z,2571.00
2022-10-20T12:13:34.781Z,2544.00
2022-10-20T12:14:34.811Z,2377.00
2022-10-20T12:15:34.765Z,2146.00
2022-10-20T12:16:34.737Z,1988.00
2022-10-20T12:17:34.706Z,1833.00
2022-10-20T12:18:34.758Z,1763.00
2022-10-20T12:19:34.678Z,1742.00
2022-10-20T12:20:34.725Z,1808.00
2022-10-20T12:21:34.691Z,1827.00
2022-10-20T12:22:34.968Z,1715.00
2022-10-20T12:23:34.624Z,1623.00
2022-10-20T12:24:34.639Z,1662.00
2022-10-20T12:25:34.631Z,1769.00
2022-10-20T12:26:34.616Z,1940.00
2022-10-20T12:27:34.580Z,2232.00
2022-10-20T12:28:34.889Z,2614.00
2022-10-20T12:29:34.594Z,2821.00
2022-10-20T12:30:34.603Z,2725.00
2022-10-20T12:31:34.563Z,2636.00
2022-10-20T12:32:34.799Z,2700.00
2022-10-20T12:33:34.539Z,2623.00
2022-10-20T12:34:34.521Z,2371.00
2022-10-20T12:35:34.486Z,2149.00
2022-10-20T12:36:34.591Z,2161.00
2022-10-20T12:37:34.818Z,2382.00
2022-10-20T12:38:34.464Z,2484.00
2022-10-20T12:39:34.439Z,2417.00
2022-10-20T12:40:34.419Z,2305.00
2022-10-20T12:41:34.421Z,2136.00
2022-10-20T12:42:34.402Z,2019.00
2022-10-20T12:43:34.393Z,2006.00